createdAt,value
2022-08-22T00:02:04.470Z,14.17
2022-08-22T00:02:41.977Z,19.34
2022-08-22T00:02:46.733Z,16.39
2022-08-22T00:02:48.064Z,18.72
2022-08-22T00:02:54.359Z,16.34
2022-08-22T00:02:56.363Z,16.54
2022-08-22T00:03:12.194Z,16.21
2022-08-22T00:04:41.460Z,14.39
2022-08-22T00:07:21.700Z,14.51
2022-08-22T00:10:03.571Z,14.00
2022-08-22T00:12:52.571Z,14.33
2022-08-22T00:15:43.235Z,14.19
2022-08-22T00:18:28.275Z,14.22
2022-08-22T00:21:17.735Z,14.32
2022-08-22T00:24:19.144Z,14.34
2022-08-22T00:27:02.063Z,14.21
2022-08-22T00:29:42.375Z,14.23
2022-08-22T00:32:41.987Z,14.10
2022-08-22T00:35:17.603Z,14.08
2022-08-22T00:38:02.757Z,14.24
2022-08-22T00:40:49.682Z,14.03
2022-08-22T00:43:53.988Z,14.04
2022-08-22T00:46:54.055Z,14.08
2022-08-22T00:49:41.582Z,14.03
2022-08-22T00:52:46.541Z,14.02
2022-08-22T00:55:40.450Z,13.73
2022-08-22T00:58:22.320Z,13.53
2022-08-22T01:00:56.026Z,13.88
2022-08-22T01:03:43.894Z,13.83
2022-08-22T01:06:10.259Z,13.72
2022-08-22T01:09:01.598Z,13.84
2022-08-22T01:11:53.095Z,13.71
2022-08-22T01:14:42.963Z,13.87
2022-08-22T01:17:47.146Z,13.66
2022-08-22T01:20:35.125Z,13.67
2022-08-22T01:23:23.218Z,13.48
2022-08-22T01:26:11.880Z,13.70
2022-08-22T01:29:15.066Z,13.82
2022-08-22T01:31:41.840Z,13.75
2022-08-22T01:34:29.583Z,13.73
2022-08-22T01:37:17.620Z,13.62
2022-08-22T01:40:13.061Z,13.59
2022-08-22T01:43:00.536Z,13.42
2022-08-22T01:45:27.070Z,13.35
2022-08-22T01:48:00.055Z,13.42
2022-08-22T01:50:41.213Z,13.36
2022-08-22T01:53:24.075Z,13.22
2022-08-22T01:56:15.364Z,13.44
2022-08-22T01:58:55.364Z,13.47
2022-08-22T02:01:30.723Z,13.40
2022-08-22T02:04:20.716Z,13.41
2022-08-22T02:07:05.056Z,13.24
2022-08-22T02:10:14.539Z,13.21
2022-08-22T02:12:41.642Z,13.31
2022-08-22T02:15:14.856Z,13.23
2022-08-22T02:17:55.646Z,13.26
2022-08-22T02:20:32.978Z,13.11
2022-08-22T02:23:22.589Z,12.99
2022-08-22T02:25:49.013Z,12.78
2022-08-22T02:29:03.076Z,12.87
2022-08-22T02:31:53.735Z,12.90
2022-08-22T02:34:44.150Z,12.95
2022-08-22T02:37:22.965Z,12.95
2022-08-22T02:40:13.854Z,12.94
2022-08-22T02:42:50.852Z,12.88
2022-08-22T02:45:24.973Z,12.88
2022-08-22T02:47:59.616Z,12.89
2022-08-22T02:50:41.309Z,12.93
2022-08-22T02:53:33.279Z,12.84
2022-08-22T02:56:06.476Z,12.75
2022-08-22T02:58:53.541Z,12.68
2022-08-22T03:01:26.344Z,12.67
2022-08-22T03:04:24.409Z,12.51
2022-08-22T03:07:15.581Z,12.73
2022-08-22T03:09:49.756Z,12.53
2022-08-22T03:12:32.853Z,12.23
2022-08-22T03:15:08.828Z,12.40
2022-08-22T03:17:47.565Z,12.40
2022-08-22T03:20:35.360Z,12.44
2022-08-22T03:23:16.296Z,12.52
2022-08-22T03:25:56.281Z,12.48
2022-08-22T03:28:38.195Z,12.41
2022-08-22T03:31:26.149Z,12.26
2022-08-22T03:34:17.160Z,12.20
2022-08-22T03:37:07.513Z,12.09
2022-08-22T03:39:48.918Z,12.08
2022-08-22T03:42:35.518Z,12.08
2022-08-22T03:45:26.201Z,11.98
2022-08-22T03:48:04.759Z,11.94
2022-08-22T03:50:59.694Z,11.85
2022-08-22T03:54:11.331Z,11.89
2022-08-22T03:57:22.017Z,11.80
2022-08-22T04:00:04.176Z,11.76
2022-08-22T04:02:53.795Z,11.82
2022-08-22T04:05:36.741Z,11.84
2022-08-22T04:08:35.884Z,11.76
2022-08-22T04:11:31.428Z,11.62
2022-08-22T04:14:24.101Z,11.55
2022-08-22T04:17:09.049Z,11.49
2022-08-22T04:20:13.060Z,11.55
2022-08-22T04:23:25.389Z,11.78
2022-08-22T04:26:01.671Z,11.78
2022-08-22T04:28:52.166Z,11.64
2022-08-22T04:31:25.933Z,11.50
2022-08-22T04:34:10.789Z,11.46
2022-08-22T04:36:45.948Z,11.40
2022-08-22T04:39:21.877Z,11.33
2022-08-22T04:42:06.957Z,11.39
2022-08-22T04:45:09.909Z,11.53
2022-08-22T04:47:49.727Z,11.53
2022-08-22T04:50:42.969Z,11.49
2022-08-22T04:53:48.197Z,11.49
2022-08-22T04:56:38.891Z,11.59
2022-08-22T04:59:12.344Z,11.64
2022-08-22T05:01:53.405Z,11.56
2022-08-22T05:04:24.178Z,11.72
2022-08-22T05:06:54.199Z,11.80
2022-08-22T05:09:27.643Z,12.02
2022-08-22T05:12:00.224Z,12.08
2022-08-22T05:14:37.098Z,12.22
2022-08-22T05:17:08.429Z,12.21
2022-08-22T05:19:40.107Z,12.13
2022-08-22T05:22:14.116Z,12.48
2022-08-22T05:24:46.220Z,12.50
2022-08-22T05:27:24.348Z,12.77
2022-08-22T05:29:57.499Z,13.12
2022-08-22T05:32:40.478Z,14.02
2022-08-22T05:35:09.499Z,15.79
2022-08-22T05:37:55.925Z,17.52
2022-08-22T05:40:29.094Z,18.68
2022-08-22T05:42:57.403Z,19.92
2022-08-22T05:45:27.045Z,20.61
2022-08-22T05:48:05.876Z,21.90
2022-08-22T05:50:43.222Z,22.41
2022-08-22T05:53:12.500Z,23.35
2022-08-22T05:55:48.605Z,23.60
2022-08-22T05:58:30.090Z,23.49
2022-08-22T06:01:22.661Z,22.78
2022-08-22T06:03:59.575Z,21.84
2022-08-22T06:06:29.969Z,22.26
2022-08-22T06:09:12.751Z,23.05
2022-08-22T06:12:02.569Z,23.91
2022-08-22T06:14:41.283Z,24.82
2022-08-22T06:17:21.712Z,25.17
2022-08-22T06:19:51.369Z,24.34
2022-08-22T06:22:28.487Z,25.95
2022-08-22T06:25:00.896Z,26.39
2022-08-22T06:27:31.087Z,26.96
2022-08-22T06:30:01.681Z,27.54
2022-08-22T06:32:58.908Z,26.50
2022-08-22T06:35:30.236Z,26.78
2022-08-22T06:38:00.593Z,27.09
2022-08-22T06:40:28.563Z,25.73
2022-08-22T06:42:57.123Z,25.46
2022-08-22T06:45:32.036Z,25.12
2022-08-22T06:48:07.934Z,24.49
2022-08-22T06:50:38.015Z,23.88
2022-08-22T06:53:10.996Z,23.30
2022-08-22T06:55:42.110Z,23.02
2022-08-22T06:58:30.918Z,22.86
2022-08-22T07:01:12.303Z,22.88
2022-08-22T07:03:50.056Z,22.42
2022-08-22T07:06:28.075Z,22.35
2022-08-22T07:08:55.844Z,22.08
2022-08-22T07:11:27.935Z,21.66
2022-08-22T07:14:13.374Z,21.59
2022-08-22T07:16:44.246Z,21.89
2022-08-22T07:19:26.782Z,22.09
2022-08-22T07:21:54.453Z,22.18
2022-08-22T07:24:28.737Z,22.41
2022-08-22T07:27:05.744Z,22.54
2022-08-22T07:29:38.117Z,22.59
2022-08-22T07:32:14.807Z,22.76
2022-08-22T07:34:50.300Z,22.27
2022-08-22T07:37:22.700Z,22.86
2022-08-22T07:39:59.280Z,23.78
2022-08-22T07:42:56.247Z,24.81
2022-08-22T07:45:49.352Z,27.05
2022-08-22T07:48:53.637Z,28.74
2022-08-22T07:51:42.462Z,30.31
2022-08-22T07:54:12.731Z,31.18
2022-08-22T07:56:48.664Z,31.55
2022-08-22T07:59:19.269Z,31.96
2022-08-22T08:01:54.337Z,32.31
2022-08-22T08:04:26.117Z,31.85
2022-08-22T08:06:55.863Z,32.57
2022-08-22T08:09:23.757Z,33.02
2022-08-22T08:11:53.470Z,33.25
2022-08-22T08:14:23.495Z,33.59
2022-08-22T08:17:06.025Z,33.83
2022-08-22T08:19:40.648Z,34.18
2022-08-22T08:22:07.755Z,33.50
2022-08-22T08:24:44.751Z,32.67
2022-08-22T08:27:38.643Z,30.89
2022-08-22T08:30:43.442Z,29.92
2022-08-22T08:33:25.516Z,28.61
2022-08-22T08:36:04.117Z,28.67
2022-08-22T08:38:49.467Z,28.33
2022-08-22T08:41:28.135Z,26.34
2022-08-22T08:44:23.845Z,27.22
2022-08-22T08:46:59.713Z,28.02
2022-08-22T08:49:33.712Z,28.28
2022-08-22T08:52:00.692Z,27.91
2022-08-22T08:55:19.714Z,27.06
2022-08-22T08:58:06.799Z,26.67
2022-08-22T09:00:45.837Z,27.04
2022-08-22T09:03:41.267Z,27.55
2022-08-22T09:06:36.037Z,27.00
2022-08-22T09:09:02.751Z,27.34
2022-08-22T09:12:02.206Z,26.94
2022-08-22T09:15:01.322Z,26.95
2022-08-22T09:17:36.942Z,27.42
2022-08-22T09:20:30.726Z,25.79
2022-08-22T09:23:27.383Z,27.24
2022-08-22T09:26:17.650Z,27.05
2022-08-22T09:29:01.286Z,26.73
2022-08-22T09:32:16.658Z,27.02
2022-08-22T09:35:22.415Z,28.50
2022-08-22T09:38:27.008Z,28.67
2022-08-22T09:41:26.001Z,27.27
2022-08-22T09:44:14.531Z,28.34
2022-08-22T09:46:53.427Z,29.30
2022-08-22T09:49:35.307Z,28.55
2022-08-22T09:52:32.050Z,27.85
2022-08-22T09:55:35.037Z,27.51
2022-08-22T09:58:13.243Z,28.29
2022-08-22T10:00:56.959Z,27.07
2022-08-22T10:03:45.563Z,26.88
2022-08-22T10:06:20.390Z,28.04
2022-08-22T10:09:12.451Z,27.55
2022-08-22T10:11:44.265Z,27.50
2022-08-22T10:14:28.573Z,28.85
2022-08-22T10:16:54.988Z,28.94
2022-08-22T10:19:32.023Z,29.25
2022-08-22T10:22:23.270Z,30.02
2022-08-22T10:25:01.743Z,30.38
2022-08-22T10:27:47.081Z,28.94
2022-08-22T10:30:25.590Z,30.89
2022-08-22T10:33:08.860Z,30.63
2022-08-22T10:35:50.570Z,30.35
2022-08-22T10:38:27.862Z,31.35
2022-08-22T10:41:18.884Z,32.27
2022-08-22T10:43:56.408Z,32.17
2022-08-22T10:46:46.222Z,32.15
2022-08-22T10:49:22.496Z,33.00
2022-08-22T10:52:14.718Z,32.05
2022-08-22T10:54:51.398Z,33.39
2022-08-22T10:57:53.013Z,33.40
2022-08-22T11:00:50.179Z,30.10
2022-08-22T11:03:39.716Z,30.49
2022-08-22T11:06:13.739Z,30.57
2022-08-22T11:08:42.953Z,31.61
2022-08-22T11:11:37.845Z,33.15
2022-08-22T11:14:29.046Z,32.60
2022-08-22T11:17:27.985Z,34.94
2022-08-22T11:20:31.875Z,36.03
2022-08-22T11:23:17.141Z,34.38
2022-08-22T11:26:06.863Z,31.34
2022-08-22T11:29:31.396Z,32.16
2022-08-22T11:32:36.894Z,32.24
2022-08-22T11:35:12.774Z,29.71
2022-08-22T11:37:56.381Z,28.49
2022-08-22T11:40:44.293Z,30.28
2022-08-22T11:43:32.756Z,33.21
2022-08-22T11:46:13.867Z,34.69
2022-08-22T11:49:07.410Z,33.83
2022-08-22T11:51:59.990Z,33.21
2022-08-22T11:54:35.197Z,33.66
2022-08-22T11:57:07.925Z,34.50
2022-08-22T11:59:43.423Z,32.54
2022-08-22T12:02:44.187Z,31.00
2022-08-22T12:05:24.688Z,31.93
2022-08-22T12:08:03.784Z,32.27
2022-08-22T12:10:34.697Z,32.41
2022-08-22T12:13:13.971Z,31.43
2022-08-22T12:15:54.609Z,31.50
2022-08-22T12:18:37.741Z,31.51
2022-08-22T12:21:31.091Z,32.06
2022-08-22T12:24:19.336Z,32.97
2022-08-22T12:27:28.879Z,32.69
2022-08-22T12:30:28.169Z,32.13
2022-08-22T12:33:03.709Z,33.03
2022-08-22T12:35:39.990Z,34.76
2022-08-22T12:38:40.547Z,33.24
2022-08-22T12:41:35.058Z,34.55
2022-08-22T12:44:04.731Z,35.59
2022-08-22T12:46:33.853Z,35.92
2022-08-22T12:49:38.463Z,36.45
2022-08-22T12:52:28.459Z,36.61
2022-08-22T12:55:00.909Z,36.91
2022-08-22T12:57:27.310Z,38.03
2022-08-22T12:59:59.221Z,38.72
2022-08-22T13:02:32.865Z,38.09
2022-08-22T13:05:13.847Z,39.03
2022-08-22T13:07:54.936Z,38.35
2022-08-22T13:10:50.651Z,38.44
2022-08-22T13:13:41.603Z,39.11
2022-08-22T13:16:19.831Z,40.42
2022-08-22T13:18:55.404Z,41.07
2022-08-22T13:21:28.754Z,40.72
2022-08-22T13:24:04.693Z,38.51
2022-08-22T13:26:35.272Z,38.64
2022-08-22T13:29:39.621Z,34.64
2022-08-22T13:32:02.398Z,36.33
2022-08-22T13:34:58.429Z,37.43
2022-08-22T13:37:34.485Z,36.24
2022-08-22T13:40:06.322Z,35.83
2022-08-22T13:42:40.116Z,35.92
2022-08-22T13:45:15.181Z,36.06
2022-08-22T13:47:51.366Z,37.09
2022-08-22T13:50:23.795Z,35.94
2022-08-22T13:53:15.397Z,33.23
2022-08-22T13:55:59.804Z,33.40
2022-08-22T13:58:46.472Z,35.79
2022-08-22T14:01:19.910Z,35.13
2022-08-22T14:03:57.558Z,35.33
2022-08-22T14:06:43.713Z,36.19
2022-08-22T14:09:30.675Z,35.72
2022-08-22T14:12:12.162Z,35.64
2022-08-22T14:14:42.605Z,35.69
2022-08-22T14:17:17.418Z,34.92
2022-08-22T14:19:58.897Z,33.40
2022-08-22T14:22:32.099Z,32.21
2022-08-22T14:25:07.219Z,31.55
2022-08-22T14:27:39.782Z,32.54
2022-08-22T14:30:20.315Z,32.98
2022-08-22T14:33:11.549Z,32.80
2022-08-22T14:35:44.176Z,35.01
2022-08-22T14:38:31.373Z,35.87
2022-08-22T14:41:21.019Z,35.07
2022-08-22T14:43:54.983Z,33.84
2022-08-22T14:46:27.416Z,33.14
2022-08-22T14:49:20.731Z,32.30
2022-08-22T14:51:58.176Z,31.86
2022-08-22T14:54:28.895Z,30.69
2022-08-22T14:56:57.145Z,29.90
2022-08-22T14:59:33.495Z,30.60
2022-08-22T15:02:15.727Z,30.03
2022-08-22T15:04:49.730Z,30.32
2022-08-22T15:07:30.928Z,29.90
2022-08-22T15:10:24.068Z,29.48
2022-08-22T15:12:53.937Z,29.42
2022-08-22T15:15:32.694Z,29.12
2022-08-22T15:18:36.552Z,29.68
2022-08-22T15:21:21.078Z,29.89
2022-08-22T15:23:53.891Z,31.38
2022-08-22T15:26:30.609Z,33.81
2022-08-22T15:29:16.256Z,34.88
2022-08-22T15:31:46.870Z,35.74
2022-08-22T15:34:28.511Z,35.69
2022-08-22T15:37:17.739Z,35.28
2022-08-22T15:40:14.281Z,33.33
2022-08-22T15:42:48.595Z,31.94
2022-08-22T15:45:38.079Z,30.68
2022-08-22T15:48:09.389Z,30.01
2022-08-22T15:50:38.767Z,30.03
2022-08-22T15:53:13.447Z,29.85
2022-08-22T15:56:10.934Z,29.49
2022-08-22T15:58:48.839Z,28.84
2022-08-22T16:01:20.490Z,28.14
2022-08-22T16:04:12.630Z,28.56
2022-08-22T16:06:54.693Z,28.23
2022-08-22T16:09:42.702Z,28.08
2022-08-22T16:12:26.606Z,27.87
2022-08-22T16:14:53.753Z,28.06
2022-08-22T16:17:29.328Z,28.31
2022-08-22T16:20:07.725Z,28.41
2022-08-22T16:22:58.297Z,28.40
2022-08-22T16:25:46.686Z,28.34
2022-08-22T16:28:56.323Z,27.81
2022-08-22T16:31:31.035Z,27.76
2022-08-22T16:34:17.831Z,27.66
2022-08-22T16:37:02.890Z,27.76
2022-08-22T16:39:50.746Z,27.78
2022-08-22T16:42:23.290Z,27.81
2022-08-22T16:45:14.348Z,28.14
2022-08-22T16:47:52.204Z,28.32
2022-08-22T16:50:32.603Z,28.15
2022-08-22T16:53:28.252Z,28.15
2022-08-22T16:56:14.059Z,28.09
2022-08-22T16:59:39.217Z,28.06
2022-08-22T17:02:34.559Z,27.74
2022-08-22T17:05:09.408Z,27.74
2022-08-22T17:07:57.426Z,27.73
2022-08-22T17:11:04.743Z,27.96
2022-08-22T17:14:00.336Z,28.05
2022-08-22T17:16:57.330Z,28.04
2022-08-22T17:19:40.385Z,27.97
2022-08-22T17:22:15.970Z,27.83
2022-08-22T17:24:47.059Z,27.74
2022-08-22T17:27:22.284Z,27.57
2022-08-22T17:29:48.885Z,27.47
2022-08-22T17:32:18.030Z,27.37
2022-08-22T17:34:59.661Z,27.20
2022-08-22T17:37:54.738Z,27.01
2022-08-22T17:40:21.270Z,26.87
2022-08-22T17:43:17.281Z,26.72
2022-08-22T17:46:07.839Z,26.45
2022-08-22T17:49:21.793Z,26.22
2022-08-22T17:52:13.084Z,25.98
2022-08-22T17:54:47.101Z,25.65
2022-08-22T17:57:36.465Z,25.45
2022-08-22T18:00:26.530Z,25.22
2022-08-22T18:03:19.060Z,25.03
2022-08-22T18:05:53.438Z,24.75
2022-08-22T18:08:38.738Z,24.55
2022-08-22T18:11:40.326Z,24.36
2022-08-22T18:14:20.035Z,24.17
2022-08-22T18:16:50.534Z,24.02
2022-08-22T18:19:58.989Z,23.94
2022-08-22T18:22:31.702Z,23.79
2022-08-22T18:25:19.577Z,23.66
2022-08-22T18:27:57.949Z,23.38
2022-08-22T18:30:47.824Z,23.20
2022-08-22T18:33:20.214Z,23.16
2022-08-22T18:35:55.574Z,23.13
2022-08-22T18:38:37.644Z,23.11
2022-08-22T18:41:24.095Z,23.08
2022-08-22T18:43:53.636Z,22.87
2022-08-22T18:46:38.134Z,22.73
2022-08-22T18:49:22.077Z,22.55
2022-08-22T18:52:13.767Z,22.40
2022-08-22T18:55:06.573Z,22.24
2022-08-22T18:57:46.342Z,22.21
2022-08-22T19:00:49.373Z,22.18
2022-08-22T19:03:27.951Z,22.10
2022-08-22T19:06:18.950Z,22.02
2022-08-22T19:09:12.975Z,21.94
2022-08-22T19:11:50.122Z,21.93
2022-08-22T19:14:16.605Z,21.89
2022-08-22T19:17:00.675Z,21.80
2022-08-22T19:20:12.338Z,21.62
2022-08-22T19:22:39.260Z,21.49
2022-08-22T19:25:14.760Z,21.51
2022-08-22T19:28:06.565Z,21.43
2022-08-22T19:30:46.986Z,21.33
2022-08-22T19:33:34.210Z,21.30
2022-08-22T19:36:12.232Z,21.28
2022-08-22T19:39:01.123Z,21.27
2022-08-22T19:41:54.217Z,21.24
2022-08-22T19:44:20.634Z,21.13
2022-08-22T19:47:07.258Z,21.08
2022-08-22T19:49:38.431Z,20.99
2022-08-22T19:52:15.699Z,20.90
2022-08-22T19:55:15.406Z,20.90
2022-08-22T19:57:46.547Z,20.87
2022-08-22T20:00:19.741Z,20.80
2022-08-22T20:02:58.606Z,20.73
2022-08-22T20:06:05.937Z,20.84
2022-08-22T20:08:44.855Z,20.90
2022-08-22T20:11:26.240Z,20.89
2022-08-22T20:14:30.393Z,20.87
2022-08-22T20:16:59.802Z,20.51
2022-08-22T20:22:48.549Z,20.64
2022-08-22T20:25:42.807Z,20.73
2022-08-22T20:28:33.955Z,20.70
2022-08-22T20:31:04.652Z,20.76
2022-08-22T20:33:41.084Z,20.69
2022-08-22T20:36:28.099Z,20.49
2022-08-22T20:39:05.521Z,20.51
2022-08-22T20:41:44.532Z,20.43
2022-08-22T20:44:18.458Z,20.40
2022-08-22T20:46:56.282Z,20.38
2022-08-22T20:49:28.590Z,20.29
2022-08-22T20:52:03.771Z,20.24
2022-08-22T20:54:33.613Z,20.27
2022-08-22T20:57:13.986Z,20.32
2022-08-22T20:59:49.236Z,20.29
2022-08-22T21:02:27.426Z,20.28
2022-08-22T21:05:01.471Z,20.23
2022-08-22T21:07:34.518Z,20.23
2022-08-22T21:10:34.228Z,20.21
2022-08-22T21:13:07.447Z,20.10
2022-08-22T21:15:45.769Z,20.03
2022-08-22T21:18:24.526Z,19.99
2022-08-22T21:20:51.415Z,19.91
2022-08-22T21:23:19.450Z,19.91
2022-08-22T21:25:53.827Z,19.97
2022-08-22T21:28:33.333Z,19.99
2022-08-22T21:31:09.810Z,20.03
2022-08-22T21:33:40.894Z,20.02
2022-08-22T21:36:10.673Z,20.02
2022-08-22T21:38:38.082Z,20.02
2022-08-22T21:41:05.424Z,19.99
2022-08-22T21:43:39.047Z,19.94
2022-08-22T21:46:07.171Z,19.88
2022-08-22T21:48:35.143Z,19.75
2022-08-22T21:51:40.731Z,19.65
2022-08-22T21:54:25.598Z,19.55
2022-08-22T21:56:54.614Z,19.44
2022-08-22T21:59:52.310Z,19.48
2022-08-22T22:02:40.071Z,19.62
2022-08-22T22:05:08.628Z,19.59
2022-08-22T22:07:38.263Z,19.57
2022-08-22T22:10:07.296Z,19.54
2022-08-22T22:12:33.794Z,19.47
2022-08-22T22:15:00.534Z,19.51
2022-08-22T22:17:27.008Z,19.41
2022-08-22T22:19:54.258Z,19.50
2022-08-22T22:22:21.806Z,19.53
2022-08-22T22:24:48.312Z,20.03
2022-08-22T22:27:17.083Z,20.42
2022-08-22T22:29:43.889Z,20.67
2022-08-22T22:32:10.417Z,20.80
2022-08-22T22:34:38.986Z,20.96
2022-08-22T22:37:08.254Z,21.00
2022-08-22T22:39:36.666Z,20.96
2022-08-22T22:42:04.189Z,21.06
2022-08-22T22:44:30.895Z,21.17
2022-08-22T22:47:02.387Z,21.36
2022-08-22T22:49:31.142Z,21.34
2022-08-22T22:51:59.147Z,21.35
2022-08-22T22:54:27.143Z,21.36
2022-08-22T22:56:54.289Z,21.27
2022-08-22T22:59:24.575Z,21.26
2022-08-22T23:02:08.493Z,21.30
2022-08-22T23:04:37.827Z,21.25
2022-08-22T23:07:05.431Z,21.07
2022-08-22T23:09:38.029Z,21.05
2022-08-22T23:12:05.986Z,21.02
2022-08-22T23:14:33.048Z,20.91
2022-08-22T23:16:59.700Z,20.80
2022-08-22T23:19:27.318Z,20.77
2022-08-22T23:21:59.022Z,20.50
2022-08-22T23:24:29.191Z,20.48
2022-08-22T23:26:56.221Z,20.45
2022-08-22T23:29:22.824Z,20.30
2022-08-22T23:31:55.469Z,20.16
2022-08-22T23:34:25.820Z,19.68
2022-08-22T23:36:54.200Z,19.69
2022-08-22T23:39:22.759Z,19.63
2022-08-22T23:41:49.888Z,19.62
2022-08-22T23:44:22.663Z,19.63
2022-08-22T23:46:49.523Z,19.57
2022-08-22T23:49:16.497Z,19.28
2022-08-22T23:51:43.711Z,19.28
2022-08-22T23:54:10.228Z,19.00
2022-08-22T23:56:42.814Z,19.05
2022-08-22T23:59:13.063Z,19.01
